createdAt,value
2023-01-17T00:01:34.153Z,2.67
2023-01-17T00:04:20.633Z,2.65
2023-01-17T00:07:22.943Z,1.27
2023-01-17T00:09:58.432Z,1.93
2023-01-17T00:12:27.719Z,1.63
2023-01-17T00:14:56.378Z,1.55
2023-01-17T00:17:24.491Z,1.35
2023-01-17T00:20:10.547Z,1.60
2023-01-17T00:22:56.273Z,1.58
2023-01-17T00:25:46.209Z,1.48
2023-01-17T00:28:13.128Z,5.20
2023-01-17T00:30:39.982Z,1.60
2023-01-17T00:33:06.834Z,1.92
2023-01-17T00:35:34.402Z,1.77
2023-01-17T00:38:05.546Z,1.70
2023-01-17T00:40:33.476Z,2.35
2023-01-17T00:43:18.808Z,2.97
2023-01-17T00:46:04.826Z,1.80
2023-01-17T00:48:50.267Z,2.08
2023-01-17T00:51:35.841Z,1.60
2023-01-17T00:54:21.470Z,2.88
2023-01-17T00:57:06.743Z,1.88
2023-01-17T00:59:52.222Z,2.85
2023-01-17T01:02:37.681Z,4.10
2023-01-17T01:05:23.481Z,2.20
2023-01-17T01:08:09.204Z,3.75
2023-01-17T01:10:54.666Z,2.95
2023-01-17T01:13:47.771Z,2.38
2023-01-17T01:16:34.308Z,2.35
2023-01-17T01:19:20.133Z,3.08
2023-01-17T01:22:05.522Z,3.47
2023-01-17T01:24:51.875Z,4.90
2023-01-17T01:27:37.406Z,3.10
2023-01-17T01:30:23.471Z,4.43
2023-01-17T01:33:08.970Z,3.25
2023-01-17T01:35:36.991Z,2.85
2023-01-17T01:38:04.453Z,4.13
2023-01-17T01:40:31.309Z,3.60
2023-01-17T01:43:00.129Z,4.20
2023-01-17T01:45:29.774Z,4.43
2023-01-17T01:48:26.763Z,4.35
2023-01-17T01:50:53.822Z,6.25
2023-01-17T01:53:21.350Z,4.85
2023-01-17T01:55:50.469Z,5.50
2023-01-17T01:58:26.973Z,5.97
2023-01-17T02:00:53.790Z,5.30
2023-01-17T02:03:25.996Z,5.55
2023-01-17T02:05:53.208Z,6.53
2023-01-17T02:08:23.144Z,5.05
2023-01-17T02:10:50.562Z,6.05
2023-01-17T02:13:20.042Z,4.82
2023-01-17T02:16:14.239Z,5.18
2023-01-17T02:18:50.009Z,4.95
2023-01-17T02:21:25.997Z,4.57
2023-01-17T02:24:11.239Z,6.68
2023-01-17T02:27:09.061Z,4.50
2023-01-17T02:29:44.901Z,4.47
2023-01-17T02:32:22.252Z,3.55
2023-01-17T02:35:01.356Z,3.92
2023-01-17T02:37:42.206Z,4.22
2023-01-17T02:40:36.779Z,4.25
2023-01-17T02:43:09.583Z,4.53
2023-01-17T02:45:36.397Z,4.22
2023-01-17T02:48:04.051Z,4.05
2023-01-17T02:50:58.773Z,4.20
2023-01-17T02:53:44.645Z,4.63
2023-01-17T02:56:21.313Z,5.13
2023-01-17T02:59:07.560Z,4.72
2023-01-17T03:01:49.625Z,4.47
2023-01-17T03:04:37.598Z,4.25
2023-01-17T03:07:11.671Z,3.83
2023-01-17T03:09:40.753Z,4.43
2023-01-17T03:12:09.978Z,4.50
2023-01-17T03:14:36.754Z,5.05
2023-01-17T03:17:03.902Z,4.20
2023-01-17T03:19:31.641Z,5.75
2023-01-17T03:21:58.399Z,4.93
2023-01-17T03:24:25.170Z,4.78
2023-01-17T03:26:51.990Z,4.60
2023-01-17T03:29:19.198Z,5.00
2023-01-17T03:31:46.680Z,4.40
2023-01-17T03:34:13.504Z,4.70
2023-01-17T03:36:40.255Z,5.32
2023-01-17T03:39:07.100Z,3.83
2023-01-17T03:41:33.884Z,5.13
2023-01-17T03:44:00.993Z,5.43
2023-01-17T03:46:31.209Z,3.35
2023-01-17T03:48:58.006Z,4.68
2023-01-17T03:51:24.841Z,4.25
2023-01-17T03:53:52.026Z,5.03
2023-01-17T03:56:19.084Z,3.58
2023-01-17T03:58:45.897Z,3.63
2023-01-17T04:01:13.161Z,3.60
2023-01-17T04:03:40.177Z,3.28
2023-01-17T04:06:07.219Z,3.28
2023-01-17T04:08:34.103Z,3.55
2023-01-17T04:11:00.981Z,8.68
2023-01-17T04:13:27.820Z,2.70
2023-01-17T04:15:54.688Z,2.67
2023-01-17T04:18:23.794Z,2.70
2023-01-17T04:20:51.599Z,3.25
2023-01-17T04:23:18.853Z,5.72
2023-01-17T04:25:45.700Z,2.33
2023-01-17T04:28:12.883Z,2.58
2023-01-17T04:30:39.926Z,3.53
2023-01-17T04:33:06.740Z,2.40
2023-01-17T04:35:33.811Z,2.60
2023-01-17T04:38:00.881Z,3.45
2023-01-17T04:40:29.572Z,2.45
2023-01-17T04:42:57.826Z,2.70
2023-01-17T04:45:24.986Z,2.67
2023-01-17T04:47:51.817Z,2.65
2023-01-17T04:50:18.792Z,2.40
2023-01-17T04:52:45.644Z,2.22
2023-01-17T04:55:12.447Z,2.63
2023-01-17T04:57:39.262Z,2.55
2023-01-17T05:00:06.665Z,2.72
2023-01-17T05:02:33.611Z,2.63
2023-01-17T05:05:00.413Z,2.30
2023-01-17T05:07:27.164Z,1.83
2023-01-17T05:09:53.925Z,2.22
2023-01-17T05:12:20.860Z,1.98
2023-01-17T05:14:47.622Z,1.58
2023-01-17T05:17:14.410Z,1.63
2023-01-17T05:19:41.214Z,2.55
2023-01-17T05:22:14.916Z,1.75
2023-01-17T05:24:46.512Z,1.25
2023-01-17T05:27:14.310Z,1.00
2023-01-17T05:29:41.679Z,1.20
2023-01-17T05:32:08.529Z,1.30
2023-01-17T05:34:35.438Z,3.22
2023-01-17T05:37:02.284Z,1.00
2023-01-17T05:39:30.957Z,2.22
2023-01-17T05:41:59.075Z,0.75
2023-01-17T05:44:27.640Z,0.93
2023-01-17T05:46:54.836Z,8.25
2023-01-17T05:49:21.670Z,1.13
2023-01-17T05:51:48.457Z,1.15
2023-01-17T05:54:15.311Z,1.85
2023-01-17T05:56:42.101Z,0.93
2023-01-17T05:59:08.958Z,0.75
2023-01-17T06:01:35.709Z,0.80
2023-01-17T06:04:02.563Z,0.70
2023-01-17T06:06:29.366Z,0.70
2023-01-17T06:08:56.182Z,2.25
2023-01-17T06:11:23.007Z,0.90
2023-01-17T06:13:49.862Z,3.03
2023-01-17T06:16:16.779Z,0.80
2023-01-17T06:18:43.670Z,1.00
2023-01-17T06:21:10.473Z,0.95
2023-01-17T06:23:37.304Z,1.35
2023-01-17T06:26:04.928Z,1.20
2023-01-17T06:28:31.807Z,1.30
2023-01-17T06:30:59.978Z,2.15
2023-01-17T06:33:27.044Z,2.28
2023-01-17T06:35:54.143Z,1.77
2023-01-17T06:38:21.330Z,3.47
2023-01-17T06:40:48.233Z,2.42
2023-01-17T06:43:15.122Z,1.35
2023-01-17T06:45:41.993Z,0.90
2023-01-17T06:48:08.829Z,5.63
2023-01-17T06:50:35.712Z,1.25
2023-01-17T06:53:05.330Z,1.83
2023-01-17T06:55:34.021Z,2.10
2023-01-17T06:58:02.821Z,1.65
2023-01-17T07:00:31.539Z,2.35
2023-01-17T07:02:58.412Z,1.52
2023-01-17T07:05:25.298Z,1.65
2023-01-17T07:07:53.590Z,4.57
2023-01-17T07:10:21.026Z,0.80
2023-01-17T07:12:47.888Z,1.60
2023-01-17T07:15:14.847Z,3.90
2023-01-17T07:17:41.733Z,3.20
2023-01-17T07:20:09.349Z,3.40
2023-01-17T07:22:37.710Z,2.15
2023-01-17T07:25:04.946Z,1.38
2023-01-17T07:27:33.488Z,2.78
2023-01-17T07:30:00.430Z,1.48
2023-01-17T07:32:27.615Z,2.28
2023-01-17T07:34:57.488Z,6.75
2023-01-17T07:37:26.363Z,3.80
2023-01-17T07:39:53.817Z,1.67
2023-01-17T07:42:22.614Z,1.00
2023-01-17T07:44:50.706Z,1.98
2023-01-17T07:47:17.641Z,1.27
2023-01-17T07:49:44.632Z,3.63
2023-01-17T07:52:11.878Z,2.28
2023-01-17T07:54:38.898Z,0.93
2023-01-17T07:57:06.117Z,1.25
2023-01-17T07:59:34.510Z,2.40
2023-01-17T08:02:01.491Z,2.75
2023-01-17T08:04:34.669Z,1.30
2023-01-17T08:07:02.241Z,2.67
2023-01-17T08:09:29.188Z,2.45
2023-01-17T08:11:55.996Z,3.15
2023-01-17T08:14:22.855Z,3.20
2023-01-17T08:16:49.673Z,3.35
2023-01-17T08:19:17.204Z,2.50
2023-01-17T08:21:44.009Z,2.72
2023-01-17T08:24:14.282Z,7.15
2023-01-17T08:26:41.128Z,5.38
2023-01-17T08:29:08.026Z,7.30
2023-01-17T08:31:35.267Z,3.25
2023-01-17T08:34:02.400Z,2.65
2023-01-17T08:36:31.179Z,7.82
2023-01-17T08:38:58.850Z,4.75
2023-01-17T08:41:29.208Z,5.55
2023-01-17T08:43:56.686Z,4.15
2023-01-17T08:46:24.295Z,3.72
2023-01-17T08:48:56.302Z,7.07
2023-01-17T08:51:26.370Z,4.80
2023-01-17T08:53:54.999Z,7.35
2023-01-17T08:56:23.768Z,6.68
2023-01-17T08:58:50.561Z,12.05
2023-01-17T09:01:17.499Z,9.13
2023-01-17T09:03:45.633Z,4.75
2023-01-17T09:06:15.293Z,7.55
2023-01-17T09:08:46.898Z,4.75
2023-01-17T09:11:16.802Z,5.23
2023-01-17T09:13:44.604Z,5.18
2023-01-17T09:16:11.494Z,7.85
2023-01-17T09:18:39.239Z,4.47
2023-01-17T09:21:17.316Z,3.47
2023-01-17T09:23:44.779Z,5.45
2023-01-17T09:26:20.860Z,3.97
2023-01-17T09:28:48.263Z,3.85
2023-01-17T09:31:17.491Z,10.07
2023-01-17T09:33:44.759Z,3.78
2023-01-17T09:36:11.687Z,6.63
2023-01-17T09:38:40.129Z,6.80
2023-01-17T09:41:29.029Z,6.47
2023-01-17T09:44:07.953Z,6.45
2023-01-17T09:46:43.477Z,5.90
2023-01-17T09:49:14.858Z,4.97
2023-01-17T09:51:42.709Z,5.30
2023-01-17T09:54:23.422Z,5.93
2023-01-17T09:57:26.629Z,2.97
2023-01-17T10:00:28.664Z,4.05
2023-01-17T10:03:24.403Z,5.20
2023-01-17T10:06:01.366Z,7.38
2023-01-17T10:08:52.176Z,8.27
2023-01-17T10:11:37.516Z,6.78
2023-01-17T10:14:13.514Z,6.65
2023-01-17T10:17:19.191Z,5.38
2023-01-17T10:19:45.920Z,7.10
2023-01-17T10:22:25.462Z,4.45
2023-01-17T10:25:07.159Z,3.47
2023-01-17T10:28:23.556Z,9.02
2023-01-17T10:30:53.172Z,6.28
2023-01-17T10:33:24.374Z,5.20
2023-01-17T10:36:04.428Z,7.60
2023-01-17T10:38:35.116Z,7.80
2023-01-17T10:41:09.900Z,7.13
2023-01-17T10:43:44.482Z,6.72
2023-01-17T10:46:38.213Z,5.18
2023-01-17T10:49:05.170Z,13.63
2023-01-17T10:51:49.919Z,6.72
2023-01-17T10:54:53.294Z,3.25
2023-01-17T10:57:23.614Z,7.43
2023-01-17T10:59:51.597Z,10.77
2023-01-17T11:02:31.435Z,4.05
2023-01-17T11:05:02.599Z,4.45
2023-01-17T11:07:29.963Z,6.88
2023-01-17T11:09:58.274Z,4.07
2023-01-17T11:12:29.373Z,6.63
2023-01-17T11:15:01.827Z,5.40
2023-01-17T11:20:23.642Z,5.07
2023-01-17T11:23:14.550Z,5.35
2023-01-17T11:25:58.549Z,4.47
2023-01-17T11:28:30.355Z,2.92
2023-01-17T11:30:59.769Z,4.65
2023-01-17T11:33:32.706Z,5.57
2023-01-17T11:35:59.687Z,3.90
2023-01-17T11:38:26.632Z,4.10
2023-01-17T11:41:13.609Z,3.28
2023-01-17T11:43:55.372Z,4.40
2023-01-17T11:46:22.597Z,3.75
2023-01-17T11:49:00.382Z,4.57
2023-01-17T11:51:31.854Z,6.57
2023-01-17T11:54:24.722Z,5.50
2023-01-17T11:59:37.520Z,4.22
2023-01-17T12:02:31.893Z,7.18
2023-01-17T12:05:11.015Z,7.78
2023-01-17T12:07:59.111Z,8.00
2023-01-17T12:10:30.427Z,4.65
2023-01-17T12:13:24.702Z,4.22
2023-01-17T12:16:38.573Z,2.50
2023-01-17T12:19:23.955Z,6.13
2023-01-17T12:22:14.882Z,6.60
2023-01-17T12:24:56.886Z,4.97
2023-01-17T12:27:51.482Z,6.03
2023-01-17T12:30:41.511Z,2.25
2023-01-17T12:33:36.533Z,2.60
2023-01-17T12:36:17.666Z,8.05
2023-01-17T12:38:47.955Z,6.30
2023-01-17T12:41:40.190Z,6.22
2023-01-17T12:44:11.678Z,2.90
2023-01-17T12:46:49.442Z,6.10
2023-01-17T12:49:35.209Z,8.35
2023-01-17T12:52:19.650Z,4.85
2023-01-17T12:54:51.866Z,5.18
2023-01-17T12:57:26.873Z,6.60
2023-01-17T13:00:13.086Z,10.07
2023-01-17T13:02:49.786Z,5.85
2023-01-17T13:05:35.624Z,4.28
2023-01-17T13:08:27.468Z,6.38
2023-01-17T13:11:18.453Z,8.85
2023-01-17T13:13:47.314Z,6.35
2023-01-17T13:16:24.442Z,3.95
2023-01-17T13:18:52.411Z,3.50
2023-01-17T13:21:30.394Z,2.65
2023-01-17T13:24:02.184Z,4.80
2023-01-17T13:26:44.316Z,6.05
2023-01-17T13:29:31.453Z,5.50
2023-01-17T13:32:06.147Z,4.90
2023-01-17T13:34:48.336Z,2.92
2023-01-17T13:37:42.021Z,4.13
2023-01-17T13:40:30.078Z,3.65
2023-01-17T13:43:06.165Z,6.15
2023-01-17T13:45:37.746Z,6.65
2023-01-17T13:48:25.840Z,3.30
2023-01-17T13:50:58.228Z,3.25
2023-01-17T13:53:34.062Z,7.88
2023-01-17T13:56:19.255Z,2.67
2023-01-17T13:58:54.514Z,7.10
2023-01-17T14:01:24.444Z,6.18
2023-01-17T14:03:54.003Z,10.82
2023-01-17T14:06:36.293Z,3.70
2023-01-17T14:09:27.742Z,7.07
2023-01-17T14:11:57.052Z,3.00
2023-01-17T14:14:42.789Z,4.43
2023-01-17T14:17:30.859Z,9.30
2023-01-17T14:20:19.106Z,5.07
2023-01-17T14:22:53.923Z,7.65
2023-01-17T14:25:24.703Z,6.75
2023-01-17T14:27:52.493Z,5.88
2023-01-17T14:30:25.756Z,3.92
2023-01-17T14:33:01.912Z,4.32
2023-01-17T14:35:29.857Z,5.90
2023-01-17T14:38:02.932Z,9.38
2023-01-17T14:40:35.853Z,7.05
2023-01-17T14:43:12.362Z,5.20
2023-01-17T14:45:39.748Z,5.82
2023-01-17T14:48:14.762Z,8.30
2023-01-17T14:50:44.063Z,6.10
2023-01-17T14:53:13.849Z,3.10
2023-01-17T14:55:56.640Z,12.93
2023-01-17T14:58:26.725Z,2.88
2023-01-17T15:01:12.571Z,5.57
2023-01-17T15:03:58.810Z,3.35
2023-01-17T15:06:40.425Z,5.28
2023-01-17T15:09:22.479Z,2.38
2023-01-17T15:11:52.103Z,6.13
2023-01-17T15:14:29.034Z,5.38
2023-01-17T15:16:56.150Z,3.85
2023-01-17T15:19:23.304Z,6.72
2023-01-17T15:21:53.301Z,5.18
2023-01-17T15:24:34.428Z,7.65
2023-01-17T15:27:02.145Z,9.52
2023-01-17T15:29:33.592Z,9.13
2023-01-17T15:32:03.168Z,7.10
2023-01-17T15:34:37.290Z,6.85
2023-01-17T15:37:29.292Z,5.50
2023-01-17T15:40:25.618Z,5.83
2023-01-17T15:42:59.097Z,5.40
2023-01-17T15:45:31.587Z,6.97
2023-01-17T15:50:30.644Z,8.05
2023-01-17T15:52:59.094Z,11.43
2023-01-17T15:55:37.226Z,6.82
2023-01-17T15:58:06.124Z,4.57
2023-01-17T16:00:41.003Z,4.85
2023-01-17T16:03:20.067Z,4.97
2023-01-17T16:05:47.579Z,4.32
2023-01-17T16:08:22.942Z,7.75
2023-01-17T16:10:59.185Z,5.57
2023-01-17T16:13:26.108Z,8.23
2023-01-17T16:15:53.111Z,6.45
2023-01-17T16:18:25.916Z,6.30
2023-01-17T16:21:14.718Z,10.52
2023-01-17T16:23:41.716Z,10.32
2023-01-17T16:26:10.899Z,8.77
2023-01-17T16:28:38.669Z,9.52
2023-01-17T16:31:05.860Z,6.60
2023-01-17T16:33:32.819Z,8.13
2023-01-17T16:35:59.596Z,8.15
2023-01-17T16:38:26.482Z,14.85
2023-01-17T16:40:54.088Z,10.88
2023-01-17T16:43:20.972Z,12.45
2023-01-17T16:45:50.463Z,11.25
2023-01-17T16:48:19.234Z,15.57
2023-01-17T16:50:50.367Z,17.05
2023-01-17T16:53:24.334Z,10.07
2023-01-17T16:55:57.219Z,8.07
2023-01-17T17:00:51.522Z,8.50
2023-01-17T17:03:20.770Z,10.80
2023-01-17T17:05:58.869Z,10.90
2023-01-17T17:08:25.956Z,19.60
2023-01-17T17:10:52.994Z,8.88
2023-01-17T17:13:20.224Z,13.25
2023-01-17T17:15:47.243Z,12.60
2023-01-17T17:18:15.976Z,7.60
2023-01-17T17:20:43.821Z,14.57
2023-01-17T17:23:11.359Z,16.88
2023-01-17T17:25:38.604Z,12.57
2023-01-17T17:28:06.443Z,15.70
2023-01-17T17:30:33.499Z,12.73
2023-01-17T17:33:00.365Z,17.30
2023-01-17T17:35:27.228Z,13.18
2023-01-17T17:37:54.563Z,13.95
2023-01-17T17:40:21.742Z,13.57
2023-01-17T17:42:48.860Z,13.82
2023-01-17T17:45:15.715Z,11.90
2023-01-17T17:47:42.561Z,13.70
2023-01-17T17:50:09.934Z,15.57
2023-01-17T17:52:36.861Z,12.93
2023-01-17T17:55:03.759Z,22.52
2023-01-17T17:57:30.640Z,18.00
2023-01-17T17:59:59.817Z,15.05
2023-01-17T18:02:26.706Z,12.40
2023-01-17T18:04:53.707Z,20.60
2023-01-17T18:07:20.722Z,17.77
2023-01-17T18:09:47.629Z,17.20
2023-01-17T18:12:14.545Z,16.70
2023-01-17T18:14:41.331Z,21.67
2023-01-17T18:17:08.196Z,16.20
2023-01-17T18:19:35.015Z,19.83
2023-01-17T18:22:03.477Z,19.20
2023-01-17T18:24:30.366Z,20.33
2023-01-17T18:26:57.775Z,19.02
2023-01-17T18:29:25.957Z,21.50
2023-01-17T18:31:54.039Z,23.70
2023-01-17T18:34:24.263Z,26.98
2023-01-17T18:36:51.966Z,27.50
2023-01-17T18:39:20.397Z,34.65
2023-01-17T18:41:47.839Z,38.08
2023-01-17T18:44:15.183Z,28.20
2023-01-17T18:46:43.258Z,24.20
2023-01-17T18:49:16.363Z,28.15
2023-01-17T18:51:46.665Z,27.48
2023-01-17T18:54:13.809Z,28.73
2023-01-17T18:56:41.029Z,26.15
2023-01-17T18:59:09.604Z,19.55
2023-01-17T19:01:37.080Z,21.42
2023-01-17T19:04:05.530Z,23.27
2023-01-17T19:06:38.054Z,18.95
2023-01-17T19:11:34.326Z,23.85
2023-01-17T19:14:01.193Z,22.70
2023-01-17T19:16:30.330Z,24.27
2023-01-17T19:19:01.659Z,26.52
2023-01-17T19:21:29.282Z,23.50
2023-01-17T19:23:57.414Z,27.52
2023-01-17T19:26:27.112Z,25.48
2023-01-17T19:29:04.986Z,30.27
2023-01-17T19:31:35.706Z,25.15
2023-01-17T19:34:02.600Z,28.05
2023-01-17T19:36:34.440Z,27.30
2023-01-17T19:39:05.334Z,23.95
2023-01-17T19:41:35.162Z,36.07
2023-01-17T19:44:04.813Z,26.63
2023-01-17T19:46:32.420Z,29.90
2023-01-17T19:48:59.756Z,41.13
2023-01-17T19:51:27.546Z,31.25
2023-01-17T19:53:55.038Z,28.20
2023-01-17T19:56:24.612Z,28.48
2023-01-17T19:58:52.430Z,30.65
2023-01-17T20:01:22.148Z,37.58
2023-01-17T20:03:50.715Z,31.55
2023-01-17T20:06:23.248Z,24.35
2023-01-17T20:08:50.701Z,29.10
2023-01-17T20:11:19.741Z,27.17
2023-01-17T20:13:47.880Z,23.25
2023-01-17T20:16:16.612Z,29.83
2023-01-17T20:18:43.900Z,27.48
2023-01-17T20:21:31.028Z,22.83
2023-01-17T20:23:59.481Z,35.63
2023-01-17T20:26:35.032Z,30.42
2023-01-17T20:29:10.449Z,21.90
2023-01-17T20:31:38.743Z,18.83
2023-01-17T20:34:06.988Z,23.75
2023-01-17T20:36:34.272Z,20.55
2023-01-17T20:39:04.137Z,23.88
2023-01-17T20:41:36.396Z,18.98
2023-01-17T20:44:07.048Z,21.83
2023-01-17T20:46:40.451Z,21.05
2023-01-17T20:49:15.757Z,23.52
2023-01-17T20:51:44.245Z,25.45
2023-01-17T20:54:14.370Z,20.45
2023-01-17T20:56:41.678Z,16.70
2023-01-17T20:59:13.326Z,18.65
2023-01-17T21:01:40.477Z,16.02
2023-01-17T21:04:10.779Z,22.60
2023-01-17T21:06:39.712Z,27.70
2023-01-17T21:09:08.559Z,30.13
2023-01-17T21:11:37.002Z,16.50
2023-01-17T21:14:07.102Z,26.38
2023-01-17T21:16:35.042Z,22.45
2023-01-17T21:19:02.228Z,17.25
2023-01-17T21:21:29.397Z,23.60
2023-01-17T21:23:59.133Z,22.33
2023-01-17T21:26:27.751Z,27.80
2023-01-17T21:28:55.159Z,21.05
2023-01-17T21:31:27.889Z,22.77
2023-01-17T21:33:57.878Z,20.60
2023-01-17T21:36:27.723Z,20.48
2023-01-17T21:38:58.281Z,24.83
2023-01-17T21:41:28.601Z,23.60
2023-01-17T21:43:57.531Z,20.75
2023-01-17T21:46:24.906Z,23.00
2023-01-17T21:48:56.714Z,22.85
2023-01-17T21:51:24.372Z,22.48
2023-01-17T21:53:51.242Z,19.25
2023-01-17T21:56:43.959Z,19.63
2023-01-17T21:59:10.741Z,20.63
2023-01-17T22:01:37.603Z,19.52
2023-01-17T22:04:04.561Z,18.25
2023-01-17T22:06:34.512Z,22.98
2023-01-17T22:09:03.237Z,21.52
2023-01-17T22:11:30.552Z,19.90
2023-01-17T22:13:59.121Z,22.35
2023-01-17T22:16:26.701Z,19.27
2023-01-17T22:18:53.548Z,21.42
2023-01-17T22:21:23.045Z,22.75
2023-01-17T22:23:55.741Z,22.83
2023-01-17T22:26:25.755Z,25.90
2023-01-17T22:28:52.911Z,19.90
2023-01-17T22:31:22.540Z,25.55
2023-01-17T22:34:02.417Z,24.55
2023-01-17T22:36:31.757Z,23.23
2023-01-17T22:38:59.054Z,23.85
2023-01-17T22:41:32.009Z,23.77
2023-01-17T22:43:59.852Z,21.15
2023-01-17T22:46:28.865Z,28.88
2023-01-17T22:48:56.248Z,21.35
2023-01-17T22:51:24.538Z,31.45
2023-01-17T22:53:53.689Z,27.13
2023-01-17T22:56:26.708Z,25.33
2023-01-17T22:58:53.720Z,27.77
2023-01-17T23:01:22.989Z,28.63
2023-01-17T23:03:56.091Z,26.50
2023-01-17T23:06:26.190Z,22.60
2023-01-17T23:08:55.336Z,31.55
2023-01-17T23:11:38.875Z,23.30
2023-01-17T23:14:12.236Z,29.92
2023-01-17T23:17:00.514Z,22.10
2023-01-17T23:19:30.944Z,27.70
2023-01-17T23:22:19.075Z,24.60
2023-01-17T23:24:53.074Z,26.85
2023-01-17T23:27:53.979Z,25.55
2023-01-17T23:30:28.724Z,27.58
2023-01-17T23:32:59.222Z,25.20
2023-01-17T23:35:28.817Z,30.05
2023-01-17T23:38:14.745Z,29.58
2023-01-17T23:40:42.056Z,23.95
2023-01-17T23:43:23.755Z,26.00
2023-01-17T23:45:52.195Z,26.20
2023-01-17T23:48:19.285Z,29.67
2023-01-17T23:50:47.526Z,25.13
2023-01-17T23:53:22.613Z,22.40
2023-01-17T23:55:54.341Z,26.17
2023-01-17T23:58:26.250Z,21.70
